createdAt,value
2023-02-02T00:42:41.021Z,99.90
2023-02-02T00:58:46.321Z,57.40
2023-02-02T01:09:14.129Z,96.50
2023-02-02T01:14:40.409Z,74.20
2023-02-02T01:19:35.942Z,91.20
2023-02-02T01:30:17.554Z,43.60
2023-02-02T01:42:57.402Z,1.00
2023-02-02T01:49:07.914Z,6.70
2023-02-02T01:54:49.887Z,4.40
2023-02-02T02:11:02.740Z,5.50
2023-02-02T02:16:20.824Z,1.00
2023-02-02T02:32:50.171Z,1.00
2023-02-02T02:38:27.343Z,1.00
2023-02-02T02:44:05.457Z,1.00
2023-02-02T02:49:22.394Z,1.00
2023-02-02T02:54:33.739Z,1.00
2023-02-02T03:00:25.251Z,1.00
2023-02-02T03:06:12.351Z,1.00
2023-02-02T03:11:33.305Z,1.00
2023-02-02T03:16:22.964Z,1.00
2023-02-02T03:21:26.807Z,1.00
2023-02-02T03:32:08.119Z,1.00
2023-02-02T03:37:12.508Z,1.00
2023-02-02T03:42:13.563Z,1.00
2023-02-02T03:47:33.738Z,1.00
2023-02-02T03:52:56.264Z,1.00
2023-02-02T03:57:42.856Z,1.00
2023-02-02T04:02:33.817Z,1.00
2023-02-02T04:07:34.903Z,1.00
2023-02-02T04:29:07.434Z,1.00
2023-02-02T04:45:24.642Z,1.00
2023-02-02T04:51:06.835Z,1.00
2023-02-02T04:56:19.265Z,1.00
2023-02-02T05:02:17.135Z,1.00
2023-02-02T05:07:03.260Z,1.00
2023-02-02T05:12:22.138Z,1.00
2023-02-02T05:17:46.086Z,1.00
2023-02-02T05:22:50.120Z,1.00
2023-02-02T05:28:26.344Z,1.00
2023-02-02T05:51:18.430Z,1.00
2023-02-02T06:03:01.109Z,1.00
2023-02-02T06:13:46.121Z,1.00
2023-02-02T06:32:03.268Z,1.00
2023-02-02T06:37:30.686Z,1.00
2023-02-02T06:48:34.537Z,1.00
2023-02-02T07:04:09.707Z,1.00
2023-02-02T07:15:18.040Z,1.00
2023-02-02T07:26:12.156Z,1.00
2023-02-02T07:31:21.911Z,1.00
2023-02-02T07:37:12.166Z,1.00
2023-02-02T07:42:02.420Z,1.00
2023-02-02T07:47:19.018Z,1.00
2023-02-02T08:05:58.249Z,1.00
2023-02-02T08:23:16.634Z,1.00
2023-02-02T08:56:09.762Z,1.00
2023-02-02T09:26:29.896Z,1.00
2023-02-02T09:50:18.335Z,1.00
2023-02-02T10:42:34.346Z,99.90
2023-02-02T10:48:00.802Z,99.90
2023-02-02T11:05:05.349Z,99.90
2023-02-02T11:16:43.072Z,1.00
2023-02-02T11:39:39.019Z,99.90
2023-02-02T11:45:26.289Z,1.00
2023-02-02T11:51:16.776Z,1.00
2023-02-02T12:03:17.610Z,1.00
2023-02-02T12:08:19.328Z,1.00
2023-02-02T12:13:46.494Z,1.00
2023-02-02T12:20:26.506Z,1.00
2023-02-02T12:25:57.939Z,1.00
2023-02-02T12:37:33.081Z,99.90
2023-02-02T12:49:39.327Z,99.90
2023-02-02T12:55:19.023Z,99.90
2023-02-02T14:00:21.205Z,1.00
2023-02-02T16:17:58.408Z,1.00
2023-02-02T16:51:49.901Z,1.00
2023-02-02T16:56:41.215Z,1.00
2023-02-02T17:01:46.049Z,1.00
2023-02-02T17:06:51.755Z,1.00
2023-02-02T17:12:33.104Z,1.00
2023-02-02T17:17:28.898Z,1.00
2023-02-02T17:22:15.897Z,1.00
2023-02-02T17:27:00.181Z,99.90
2023-02-02T17:32:09.256Z,1.00
2023-02-02T17:37:11.771Z,1.00
2023-02-02T17:42:29.728Z,1.00
2023-02-02T17:53:37.974Z,99.90
2023-02-02T17:58:42.501Z,99.90
2023-02-02T18:03:37.262Z,99.90
2023-02-02T18:08:21.175Z,99.90
2023-02-02T18:13:12.170Z,99.90
2023-02-02T18:18:00.702Z,99.90
2023-02-02T18:22:47.441Z,99.90
2023-02-02T18:27:32.292Z,99.90
2023-02-02T18:32:26.792Z,99.90
2023-02-02T18:43:17.936Z,99.90
2023-02-02T18:48:21.349Z,99.90
2023-02-02T19:04:06.569Z,99.90
2023-02-02T19:08:57.095Z,99.90
2023-02-02T19:13:41.857Z,99.90
2023-02-02T19:18:44.671Z,99.90
2023-02-02T19:23:45.256Z,99.90
2023-02-02T19:29:25.392Z,99.90
2023-02-02T19:34:15.740Z,99.90
2023-02-02T19:39:14.915Z,99.90
2023-02-02T19:44:21.177Z,99.90
2023-02-02T19:49:23.014Z,99.90
2023-02-02T19:54:30.837Z,99.90
2023-02-02T19:59:33.221Z,99.90
2023-02-02T20:04:23.848Z,99.90
2023-02-02T20:09:14.688Z,99.90
2023-02-02T20:14:11.376Z,99.90
2023-02-02T20:19:04.545Z,99.90
2023-02-02T20:23:49.039Z,99.90
2023-02-02T20:29:30.203Z,99.90
2023-02-02T20:34:43.077Z,99.90
2023-02-02T20:40:06.837Z,99.90
2023-02-02T20:44:52.598Z,99.90
2023-02-02T20:49:43.633Z,99.90
2023-02-02T20:54:34.874Z,99.90
2023-02-02T20:59:35.533Z,99.90
2023-02-02T21:04:24.907Z,99.90
2023-02-02T21:09:22.737Z,99.90
2023-02-02T21:14:29.112Z,99.90
2023-02-02T21:25:42.239Z,99.90
2023-02-02T21:36:37.289Z,99.90
2023-02-02T21:47:44.625Z,99.90
2023-02-02T21:52:37.713Z,99.90
2023-02-02T21:57:54.005Z,99.90
2023-02-02T22:04:06.792Z,99.90
2023-02-02T22:09:24.192Z,99.90
2023-02-02T22:19:48.982Z,99.90
2023-02-02T22:24:38.872Z,99.90
2023-02-02T22:29:25.508Z,99.90
2023-02-02T22:34:28.915Z,99.90
2023-02-02T22:39:19.722Z,99.90
2023-02-02T22:44:20.037Z,99.90
2023-02-02T23:01:25.022Z,99.90
2023-02-02T23:06:12.490Z,99.90
2023-02-02T23:11:04.856Z,99.90
2023-02-02T23:15:48.317Z,99.90
2023-02-02T23:20:36.165Z,99.90
2023-02-02T23:25:29.164Z,99.90
2023-02-02T23:30:14.612Z,99.90
2023-02-02T23:35:00.002Z,99.90
2023-02-02T23:39:48.089Z,99.90
2023-02-02T23:44:37.447Z,99.90
2023-02-02T23:49:25.208Z,99.90
2023-02-02T23:54:12.362Z,99.90
2023-02-02T23:59:06.138Z,99.90
